Latest Weather Observations for Jandakot

IDW60901

Issued at 2:41 am WST Monday 24 July 2017 (issued every 10 minutes, with the page automatically refreshed every 10 minutes)

About weather observations | Map of Perth area stations | Latest observations for Perth area | Other Formats
Station Details ID: 009172 Name: JANDAKOT AERO Lat: -32.10 Lon: 115.88 Height: 30.0 m
Data from the previous 72 hours. | See also: Recent months at Jandakot
Date/Time
WST
Temp
°C
App
Temp
°C
Dew
Point
°C
Rel
Hum
%
Delta-T
°C
Wind Press
QNH
hPa
Press
MSL
hPa
Rain since
9am
mm
Dir  Spd
km/h
Gust
km/h
Spd
kts
Gust
kts
24/02:30am 12.3 12.5 11.9 97 0.2 NNE 2 7 1 4 1017.8 1017.8 4.2
24/02:01am 12.0 10.9 11.8 99 0.1 NE 9 11 5 6 1017.8 1017.8 4.2
24/02:00am 12.0 10.9 11.8 99 0.1 NE 9 11 5 6 1017.7 1017.7 4.2
24/01:37am 12.1 11.5 11.7 97 0.2 ENE 6 7 3 4 1017.6 1017.6 4.2
24/01:32am 12.3 11.8 11.9 97 0.2 ENE 6 7 3 4 1017.7 1017.7 4.2
24/01:30am 12.4 12.3 12.0 97 0.2 E 4 7 2 4 1017.7 1017.7 4.2
24/01:01am 11.6 10.3 11.2 97 0.2 NE 9 11 5 6 1017.7 1017.7 4.0
24/01:00am 11.6 10.2 11.0 96 0.3 NE 9 11 5 6 1017.6 1017.6 4.0
24/12:30am 12.6 11.6 12.2 97 0.2 NNE 9 11 5 6 1017.5 1017.5 4.0
24/12:00am 12.5 11.8 11.9 96 0.3 NE 7 9 4 5 1017.6 1017.6 4.0
 
Date/Time
WST
Temp
°C
App
Temp
°C
Dew
Point
°C
Rel
Hum
%
Delta-T
°C
Wind Press
QNH
hPa
Press
MSL
hPa
Rain since
9am
mm
Dir  Spd
km/h
Gust
km/h
Spd
kts
Gust
kts
23/11:30pm 12.1 10.9 11.5 96 0.3 NE 9 11 5 6 1017.6 1017.6 4.0
23/11:00pm 12.4 12.6 11.8 96 0.3 SE 2 6 1 3 1017.6 1017.6 4.0
23/10:30pm 12.4 11.6 11.8 96 0.3 NNE 7 9 4 5 1017.7 1017.7 4.0
23/10:00pm 12.7 12.9 12.0 95 0.4 ESE 2 7 1 4 1017.6 1017.6 3.8
23/09:30pm 13.1 13.7 12.0 93 0.6 CALM 0 0 0 0 1017.7 1017.7 3.8
23/09:00pm 13.4 13.0 12.3 93 0.6 SSW 6 9 3 5 1017.8 1017.8 3.8
23/08:30pm 13.5 14.2 12.2 92 0.7 CALM 0 0 0 0 1017.5 1017.5 3.8
23/08:00pm 13.7 14.4 12.2 91 0.8 CALM 0 0 0 0 1017.3 1017.3 3.8
23/07:30pm 13.8 13.0 11.7 87 1.1 SSW 7 11 4 6 1017.0 1017.0 3.8
23/07:00pm 14.0 11.0 12.1 88 1.0 SW 19 24 10 13 1016.9 1016.9 3.8
23/06:30pm 14.1 13.8 12.6 91 0.8 NW 6 7 3 4 1016.5 1016.5 3.8
23/06:00pm 14.0 13.5 12.5 91 0.8 NNW 7 9 4 5 1016.2 1016.2 3.8
23/05:30pm 14.0 13.3 12.1 88 1.0 WNW 7 11 4 6 1016.2 1016.2 3.2
23/05:00pm 14.8 11.9 12.4 85 1.3 W 19 28 10 15 1016.1 1016.1 3.2
23/04:30pm 15.2 13.4 12.1 82 1.7 W 13 19 7 10 1016.0 1016.0 3.0
23/04:00pm 14.9 11.6 12.9 88 1.1 W 22 32 12 17 1015.7 1015.7 3.0
23/03:30pm 14.6 11.7 12.4 87 1.2 WNW 19 22 10 12 1015.6 1015.6 3.0
23/03:28pm 14.6 11.7 12.4 87 1.2 WNW 19 22 10 12 1015.6 1015.6 3.0
23/03:17pm 14.1 9.8 11.9 86 1.2 WSW 26 39 14 21 1015.6 1015.6 3.0
23/03:00pm 16.5 12.1 10.5 67 3.2 SW 24 33 13 18 1015.6 1015.6 2.0
23/02:30pm 17.9 13.3 11.1 64 3.7 W 26 37 14 20 1015.4 1015.4 2.0
23/02:00pm 17.9 12.9 11.1 64 3.7 W 28 41 15 22 1015.4 1015.4 2.0
23/01:30pm 17.1 13.5 11.8 71 2.9 WNW 22 33 12 18 1015.7 1015.7 2.0
23/01:00pm 15.6 11.3 12.1 80 1.9 W 26 33 14 18 1016.1 1016.1 1.8
23/12:30pm 15.7 10.6 13.0 84 1.5 WSW 32 43 17 23 1016.2 1016.2 1.8
23/12:23pm 16.0 10.8 12.9 82 1.7 W 32 48 17 26 1016.5 1016.5 1.8
23/12:02pm 18.1 11.3 11.9 67 3.4 W 39 61 21 33 1016.3 1016.3 1.8
23/12:00pm 18.2 11.3 11.6 65 3.6 W 39 54 21 29 1016.3 1016.3 1.8
23/11:48am 17.6 12.8 11.5 67 3.3 WNW 28 48 15 26 1016.2 1016.2 1.8
23/11:30am 16.0 12.5 12.2 78 2.1 NW 22 30 12 16 1016.6 1016.6 1.6
23/11:00am 16.5 14.1 12.5 77 2.2 NW 17 24 9 13 1016.9 1016.9 1.4
23/10:30am 14.5 7.5 9.9 74 2.4 NW 37 56 20 30 1017.3 1017.3 1.4
23/10:23am 14.9 11.3 11.9 82 1.6 NW 22 54 12 29 1017.3 1017.3 1.4
23/10:22am 15.1 12.3 12.7 85 1.3 NW 19 44 10 24 1017.3 1017.3 1.4
23/10:00am 14.7 12.7 13.8 94 0.5 N 17 20 9 11 1017.1 1017.1 1.4
23/09:57am 14.6 12.7 14.1 97 0.3 N 17 24 9 13 1017.1 1017.1 1.4
23/09:43am 13.7 10.0 12.6 93 0.6 N 24 35 13 19 1017.2 1017.2 1.4
23/09:30am 13.6 11.7 12.9 95 0.4 NNE 15 19 8 10 1017.0 1017.0 0.0
23/09:00am 13.1 11.8 12.4 95 0.4 NNE 11 17 6 9 1016.9 1016.9 6.4
23/08:48am 13.0 10.5 12.3 95 0.4 NNE 17 20 9 11 1016.9 1016.9 6.2
23/08:30am 12.8 10.6 12.1 95 0.4 N 15 22 8 12 1016.9 1016.9 6.0
23/08:29am 12.8 10.6 12.2 96 0.3 N 15 22 8 12 1016.9 1016.9 5.8
23/08:00am 12.8 10.3 12.2 96 0.3 NNE 17 19 9 10 1016.7 1016.7 3.0
23/07:30am 11.9 9.1 11.5 97 0.2 NNE 17 20 9 11 1016.6 1016.6 3.0
23/07:00am 12.1 9.0 11.7 97 0.2 NNE 19 20 10 11 1016.4 1016.4 2.8
23/06:30am 11.9 9.9 11.5 97 0.2 NNE 13 17 7 9 1016.4 1016.4 2.4
23/06:00am 12.1 9.4 11.7 97 0.2 NNE 17 22 9 12 1016.3 1016.3 2.4
23/05:30am 12.4 9.8 12.0 97 0.2 N 17 20 9 11 1016.6 1016.6 2.2
23/05:00am 12.3 10.4 11.9 97 0.2 N 13 19 7 10 1016.5 1016.5 1.0
23/04:30am 12.2 10.0 12.0 99 0.1 NNE 15 19 8 10 1016.8 1016.8 1.0
23/04:00am 12.4 9.9 12.2 99 0.1 NNE 17 20 9 11 1017.0 1017.0 1.0
23/03:32am 12.5 10.3 12.1 97 0.2 N 15 19 8 10 1017.1 1017.1 1.0
23/03:30am 12.5 10.4 12.3 99 0.1 N 15 19 8 10 1017.1 1017.1 1.0
23/03:00am 12.5 10.4 12.3 99 0.1 NNE 15 20 8 11 1017.4 1017.4 0.4
23/02:57am 12.5 10.0 12.3 99 0.1 NNE 17 20 9 11 1017.4 1017.4 0.4
23/02:30am 12.3 9.7 12.1 99 0.1 N 17 20 9 11 1017.7 1017.7 0.4
23/02:13am 12.3 9.7 11.9 97 0.2 NNE 17 20 9 11 1017.6 1017.6 0.4
23/02:00am 12.1 9.5 11.9 99 0.1 NNE 17 22 9 12 1017.7 1017.7 0.4
23/01:30am 12.2 9.6 12.0 99 0.1 NNE 17 20 9 11 1017.9 1017.9 0.4
23/01:27am 12.2 9.9 11.8 97 0.2 NNE 15 20 8 11 1017.9 1017.9 0.4
23/01:00am 11.5 9.4 11.1 97 0.2 NE 13 15 7 8 1018.0 1018.0 0.4
23/12:30am 11.8 10.2 11.4 97 0.2 NNE 11 13 6 7 1018.2 1018.2 0.4
23/12:00am 11.5 9.8 11.1 97 0.2 NNE 11 13 6 7 1018.6 1018.6 0.2
 
Date/Time
WST
Temp
°C
App
Temp
°C
Dew
Point
°C
Rel
Hum
%
Delta-T
°C
Wind Press
QNH
hPa
Press
MSL
hPa
Rain since
9am
mm
Dir  Spd
km/h
Gust
km/h
Spd
kts
Gust
kts
22/11:30pm 11.7 9.6 11.1 96 0.3 NNE 13 15 7 8 1018.9 1018.9 0.2
22/11:00pm 12.5 12.0 12.1 97 0.2 NNE 6 9 3 5 1018.9 1018.9 0.2
22/10:30pm 12.7 10.9 12.1 96 0.3 NNE 13 15 7 8 1018.9 1018.9 0.2
22/10:00pm 11.4 9.6 10.8 96 0.3 NNE 11 13 6 7 1019.1 1019.1 0.2
22/09:30pm 12.2 10.6 11.4 95 0.4 NNE 11 11 6 6 1019.0 1019.0 0.2
22/09:00pm 12.4 11.2 11.6 95 0.4 NNE 9 11 5 6 1019.0 1019.0 0.2
22/08:30pm 11.5 9.8 11.1 97 0.2 NE 11 13 6 7 1019.0 1019.0 0.2
22/08:00pm 11.0 9.5 10.6 97 0.2 NNE 9 11 5 6 1019.0 1019.0 0.2
22/07:48pm 11.5 10.5 10.9 96 0.3 NNE 7 9 4 5 1018.9 1018.9 0.2
22/07:35pm 11.0 9.8 10.4 96 0.3 NNE 7 9 4 5 1018.7 1018.7 0.2
22/07:30pm 10.9 9.4 10.5 97 0.2 NNE 9 9 5 5 1018.7 1018.7 0.2
22/07:00pm 12.4 11.8 11.6 95 0.4 NNE 6 7 3 4 1018.7 1018.7 0.2
22/06:30pm 12.7 12.5 11.8 94 0.5 N 4 7 2 4 1018.4 1018.4 0.2
22/06:00pm 13.9 14.5 12.0 88 1.0 CALM 0 0 0 0 1018.3 1018.3 0.2
22/05:30pm 14.2 12.1 12.4 89 1.0 SW 15 19 8 10 1018.3 1018.3 0.2
22/05:00pm 14.6 13.6 12.4 87 1.2 WSW 9 13 5 7 1018.0 1018.0 0.2
22/04:30pm 15.6 12.5 11.5 76 2.2 SW 19 22 10 12 1017.8 1017.8 0.0
22/04:00pm 17.0 13.4 10.4 65 3.5 W 20 26 11 14 1017.5 1017.5 0.0
22/03:30pm 17.2 13.6 10.4 64 3.6 W 20 28 11 15 1017.4 1017.4 0.0
22/03:00pm 17.7 14.6 10.2 61 4.0 W 17 24 9 13 1017.1 1017.1 0.0
22/02:30pm 17.8 13.7 8.7 55 4.7 W 20 28 11 15 1017.1 1017.1 0.0
22/02:00pm 17.9 13.6 7.9 52 5.1 W 20 26 11 14 1017.2 1017.2 0.0
22/01:30pm 18.3 14.0 6.9 47 5.7 W 19 30 10 16 1017.3 1017.3 0.0
22/01:00pm 18.6 13.1 5.7 42 6.3 W 24 32 13 17 1017.6 1017.6 0.0
22/12:30pm 18.4 13.8 6.3 45 6.0 W 20 30 11 16 1017.9 1017.9 0.0
22/12:00pm 17.8 13.7 8.5 54 4.8 WSW 20 28 11 15 1018.6 1018.6 0.0
22/11:30am 17.0 16.7 12.7 76 2.4 NNW 6 11 3 6 1018.8 1018.8 0.0
22/11:00am 16.5 15.7 11.7 73 2.6 NE 7 9 4 5 1019.3 1019.3 0.0
22/10:30am 15.4 14.7 12.1 81 1.8 NNE 7 9 4 5 1019.3 1019.3 0.0
22/10:00am 14.7 14.0 13.3 91 0.8 ENE 9 11 5 6 1019.2 1019.2 0.0
22/09:30am 13.6 12.8 12.9 95 0.4 NE 9 11 5 6 1019.1 1019.1 0.0
22/09:00am 12.8 11.5 12.4 97 0.2 NNE 11 13 6 7 1018.7 1018.7 18.0
22/08:30am 12.8 12.2 12.4 97 0.2 NNE 7 9 4 5 1018.3 1018.3 18.0
22/08:27am 12.4 11.7 12.0 97 0.2 NE 7 9 4 5 1018.3 1018.3 18.0
22/08:00am 11.6 10.0 11.4 99 0.1 NE 11 11 6 6 1018.0 1018.0 17.4
22/07:30am 10.6 10.4 10.4 99 0.1 ENE 2 6 1 3 1017.8 1017.8 17.4
22/07:00am 10.2 9.1 9.8 97 0.2 NE 6 7 3 4 1017.2 1017.2 17.4
22/06:30am 10.5 9.6 10.5 100 0.0 ENE 6 7 3 4 1016.8 1016.8 17.4
22/06:11am 11.3 10.5 11.1 99 0.1 ENE 6 7 3 4 1016.8 1016.8 17.4
22/06:00am 11.2 10.8 11.0 99 0.1 NE 4 9 2 5 1016.6 1016.6 17.4
22/05:30am 11.2 9.8 11.0 99 0.1 ENE 9 11 5 6 1016.5 1016.5 17.4
22/05:15am 10.6 9.0 10.2 97 0.2 E 9 11 5 6 1016.4 1016.4 17.4
22/05:02am 10.5 8.8 9.9 96 0.3 E 9 13 5 7 1016.5 1016.5 17.4
22/05:00am 10.1 8.4 9.7 97 0.2 NE 9 13 5 7 1016.5 1016.5 17.4
22/04:30am 9.8 7.9 9.2 96 0.3 NNE 9 9 5 5 1016.4 1016.4 17.4
22/04:00am 9.7 7.8 8.9 95 0.4 NNE 9 11 5 6 1016.2 1016.2 17.4
22/03:30am 10.0 9.1 9.2 95 0.4 NNE 4 7 2 4 1016.2 1016.2 17.4
22/03:00am 10.6 10.2 9.8 95 0.4 N 2 6 1 3 1016.2 1016.2 17.4
22/02:30am 10.7 9.6 10.1 96 0.3 NE 6 7 3 4 1016.1 1016.1 17.4
22/02:00am 11.6 11.0 10.4 92 0.6 ESE 4 6 2 3 1016.1 1016.1 17.4
22/01:30am 12.3 11.0 11.2 93 0.6 SE 9 11 5 6 1016.3 1016.3 17.4
22/01:00am 13.5 12.4 11.8 89 0.9 S 9 9 5 5 1016.4 1016.4 17.4
22/12:30am 13.7 13.1 11.6 87 1.1 S 6 7 3 4 1016.2 1016.2 17.4
22/12:00am 14.1 12.4 11.3 83 1.5 SW 11 13 6 7 1016.1 1016.1 17.4
 
Date/Time
WST
Temp
°C
App
Temp
°C
Dew
Point
°C
Rel
Hum
%
Delta-T
°C
Wind Press
QNH
hPa
Press
MSL
hPa
Rain since
9am
mm
Dir  Spd
km/h
Gust
km/h
Spd
kts
Gust
kts
21/11:30pm 14.1 13.6 12.1 88 1.1 SSW 6 7 3 4 1016.1 1016.1 17.4
21/11:00pm 14.3 12.4 11.7 84 1.4 SW 13 17 7 9 1016.0 1016.0 17.4
21/10:30pm 14.4 13.9 13.7 96 0.4 WSW 9 13 5 7 1016.0 1016.0 17.4
21/10:03pm 14.3 12.9 13.4 94 0.5 W 13 20 7 11 1015.9 1015.9 17.4
21/10:00pm 14.3 12.5 13.4 94 0.5 W 15 24 8 13 1015.9 1015.9 17.4
21/09:48pm 14.5 11.1 13.6 94 0.5 WSW 24 35 13 19 1015.9 1015.9 17.0
21/09:34pm 15.0 14.3 14.3 96 0.4 W 11 15 6 8 1015.6 1015.6 15.8
21/09:30pm 15.0 14.3 14.3 96 0.4 W 11 13 6 7 1015.6 1015.6 15.8
21/09:00pm 15.0 12.1 14.1 94 0.5 W 22 32 12 17 1015.8 1015.8 15.8
21/08:55pm 15.0 12.1 14.1 94 0.5 W 22 32 12 17 1015.7 1015.7 15.2
21/08:43pm 14.7 11.7 13.8 94 0.5 WNW 22 30 12 16 1015.5 1015.5 14.8
21/08:30pm 14.4 10.6 13.7 96 0.4 W 26 35 14 19 1015.4 1015.4 14.2
21/08:27pm 14.5 10.8 13.8 96 0.4 W 26 35 14 19 1015.5 1015.5 14.0
21/08:26pm 14.5 11.2 14.0 97 0.3 W 24 35 13 19 1015.6 1015.6 14.0
21/08:00pm 14.5 10.3 13.6 94 0.5 WSW 28 43 15 23 1015.6 1015.6 8.2
21/07:43pm 14.5 8.4 13.1 91 0.8 W 37 54 20 29 1015.3 1015.3 2.6
21/07:36pm 15.0 8.7 12.2 83 1.5 WNW 37 61 20 33 1015.4 1015.4 1.0
21/07:33pm 17.3 11.6 11.0 66 3.4 WNW 32 61 17 33 1015.0 1015.0 0.0
21/07:30pm 17.3 11.9 11.0 66 3.4 WNW 30 41 16 22 1014.7 1014.7 0.0
21/07:00pm 17.2 11.3 10.4 64 3.6 WNW 32 43 17 23 1014.5 1014.5 0.0
21/06:30pm 17.1 11.0 9.9 62 3.8 WNW 32 41 17 22 1014.2 1014.2 0.0
21/06:00pm 16.8 11.2 10.0 64 3.6 WNW 30 39 16 21 1013.9 1013.9 0.0
21/05:30pm 17.1 10.7 9.2 59 4.1 WNW 33 48 18 26 1013.8 1013.8 0.0
21/05:00pm 17.7 10.9 9.3 58 4.4 WNW 35 48 19 26 1013.7 1013.7 0.0
21/04:30pm 18.3 11.0 10.3 59 4.3 WNW 39 54 21 29 1013.5 1013.5 0.0
21/04:00pm 18.5 11.7 11.8 65 3.7 WNW 39 50 21 27 1013.1 1013.1 0.0
21/03:30pm 18.6 11.8 10.8 60 4.2 NW 37 50 20 27 1012.9 1012.9 0.0
21/03:07pm 18.7 12.2 11.6 63 3.9 WNW 37 56 20 30 1013.1 1013.1 0.0
21/03:00pm 18.4 11.1 11.5 64 3.8 WNW 41 56 22 30 1013.0 1013.0 0.0
21/02:41pm 17.5 10.4 11.0 65 3.5 NW 39 59 21 32 1013.0 1013.0 0.0
21/02:30pm 19.1 11.2 9.2 52 5.2 NW 41 54 22 29 1013.1 1013.1 0.0
21/02:00pm 19.6 12.7 8.9 50 5.6 WNW 35 50 19 27 1013.2 1013.2 0.0
21/01:33pm 19.6 10.8 8.2 47 5.9 WNW 44 63 24 34 1013.6 1013.6 0.0
21/01:30pm 19.3 10.1 7.8 47 5.9 WNW 46 63 25 34 1013.4 1013.4 0.0
21/01:03pm 19.3 11.1 9.7 53 5.1 WNW 43 61 23 33 1013.5 1013.5 0.0
21/01:00pm 19.0 10.5 9.1 52 5.2 WNW 44 61 24 33 1013.4 1013.4 0.0
21/12:30pm 18.6 11.8 10.8 60 4.2 WNW 37 56 20 30 1013.7 1013.7 0.0
21/12:29pm 18.6 11.9 11.1 61 4.1 WNW 37 56 20 30 1013.7 1013.7 0.0
21/12:00pm 19.0 11.7 10.2 56 4.7 WNW 39 48 21 26 1014.1 1014.1 0.0
21/11:30am 19.6 13.2 8.5 48 5.8 NW 32 46 17 25 1014.5 1014.5 0.0
21/11:04am 19.0 11.7 7.1 46 6.0 WNW 35 54 19 29 1014.5 1014.5 0.0
21/11:00am 19.0 12.4 7.9 48 5.7 WNW 32 43 17 23 1014.5 1014.5 0.0
21/10:30am 18.0 11.2 9.2 56 4.6 WNW 35 48 19 26 1014.5 1014.5 0.0
21/10:00am 17.9 11.2 8.1 52 5.0 WNW 33 50 18 27 1014.5 1014.5 0.0
21/09:47am 18.0 11.9 8.3 53 5.0 WNW 30 48 16 26 1014.2 1014.2 0.0
21/09:30am 17.2 11.6 8.6 57 4.4 WNW 28 43 15 23 1014.4 1014.4 0.0
21/09:00am 17.0 11.5 7.7 54 4.7 WNW 26 32 14 17 1014.1 1014.1 4.2
21/08:30am 16.7 12.4 9.4 62 3.8 WNW 22 30 12 16 1014.1 1014.1 4.2
21/08:00am 15.8 12.4 9.2 65 3.4 NW 17 26 9 14 1013.8 1013.8 4.2
21/07:30am 13.9 11.0 8.3 69 2.8 NW 13 15 7 8 1013.7 1013.7 4.2
21/07:00am 15.0 11.6 7.5 61 3.7 NW 15 20 8 11 1013.4 1013.4 4.2
21/06:30am 15.0 10.9 7.8 62 3.6 WNW 19 26 10 14 1013.4 1013.4 4.2
21/06:00am 15.5 11.6 9.5 67 3.1 WNW 20 28 11 15 1012.9 1012.9 4.2
21/05:30am 14.4 12.2 10.8 79 1.9 WNW 13 19 7 10 1012.8 1012.8 4.2
21/05:00am 15.0 12.5 9.6 70 2.8 WNW 13 15 7 8 1012.6 1012.6 4.0
21/04:30am 15.2 12.1 8.7 65 3.3 WNW 15 20 8 11 1012.5 1012.5 4.0
21/04:00am 14.8 11.7 8.9 68 3.0 WNW 15 17 8 9 1012.6 1012.6 4.0
21/03:30am 14.7 12.0 8.8 68 3.0 WNW 13 17 7 9 1012.5 1012.5 4.0
21/03:00am 14.2 10.9 8.0 66 3.1 W 15 20 8 11 1012.6 1012.6 4.0

Latest Capital City Observations: Canberra | Sydney | Melbourne | Brisbane | Adelaide | Perth | Hobart | Darwin

Other Formats:

Comma delimited format used in spreadsheet applications
http://www.bom.gov.au/fwo/IDW60901/IDW60901.94609.axf

JavaScript Object Notation format (JSON) in row-major order
http://www.bom.gov.au/fwo/IDW60901/IDW60901.94609.json